sensor_id;sensor_type;location;lat;lon;timestamp;P1;durP1;ratioP1;P2;durP2;ratioP2
71965;SDS011;59836;52.132;5.442;2023-04-25T00:13:47;7.63;;;1.95;;
71965;SDS011;59836;52.132;5.442;2023-04-25T00:16:29;7.40;;;1.93;;
71965;SDS011;59836;52.132;5.442;2023-04-25T00:22:32;7.70;;;1.48;;
71965;SDS011;59836;52.132;5.442;2023-04-25T00:35:03;3.47;;;1.33;;
71965;SDS011;59836;52.132;5.442;2023-04-25T00:37:33;8.77;;;1.85;;
71965;SDS011;59836;52.132;5.442;2023-04-25T00:40:03;10.43;;;2.60;;
71965;SDS011;59836;52.132;5.442;2023-04-25T00:42:43;8.13;;;2.25;;
71965;SDS011;59836;52.132;5.442;2023-04-25T00:45:12;11.90;;;2.13;;
71965;SDS011;59836;52.132;5.442;2023-04-25T00:47:45;9.50;;;2.40;;
71965;SDS011;59836;52.132;5.442;2023-04-25T00:50:15;8.48;;;2.05;;
71965;SDS011;59836;52.132;5.442;2023-04-25T00:52:43;6.90;;;2.40;;
71965;SDS011;59836;52.132;5.442;2023-04-25T00:55:26;7.65;;;2.05;;
71965;SDS011;59836;52.132;5.442;2023-04-25T00:58:17;11.93;;;2.03;;
71965;SDS011;59836;52.132;5.442;2023-04-25T01:00:59;7.18;;;2.20;;
71965;SDS011;59836;52.132;5.442;2023-04-25T01:03:27;9.07;;;1.70;;
71965;SDS011;59836;52.132;5.442;2023-04-25T01:05:58;9.05;;;1.98;;
71965;SDS011;59836;52.132;5.442;2023-04-25T01:08:27;10.60;;;2.05;;
71965;SDS011;59836;52.132;5.442;2023-04-25T01:10:55;9.47;;;2.30;;
71965;SDS011;59836;52.132;5.442;2023-04-25T01:13:46;9.88;;;1.65;;
71965;SDS011;59836;52.132;5.442;2023-04-25T01:17:10;5.97;;;2.20;;
71965;SDS011;59836;52.132;5.442;2023-04-25T01:23:32;7.28;;;2.05;;
71965;SDS011;59836;52.132;5.442;2023-04-25T01:26:06;7.43;;;2.10;;
71965;SDS011;59836;52.132;5.442;2023-04-25T01:31:24;11.95;;;1.63;;
71965;SDS011;59836;52.132;5.442;2023-04-25T01:34:16;7.00;;;2.03;;
71965;SDS011;59836;52.132;5.442;2023-04-25T01:45:12;6.57;;;2.00;;
71965;SDS011;59836;52.132;5.442;2023-04-25T01:51:14;8.65;;;2.00;;
71965;SDS011;59836;52.132;5.442;2023-04-25T01:53:59;8.13;;;2.40;;
71965;SDS011;59836;52.132;5.442;2023-04-25T02:04:12;10.18;;;1.90;;
71965;SDS011;59836;52.132;5.442;2023-04-25T02:06:55;9.18;;;2.00;;
71965;SDS011;59836;52.132;5.442;2023-04-25T02:09:29;9.77;;;1.60;;
71965;SDS011;59836;52.132;5.442;2023-04-25T02:11:59;4.60;;;1.55;;
71965;SDS011;59836;52.132;5.442;2023-04-25T02:14:30;9.38;;;2.17;;
71965;SDS011;59836;52.132;5.442;2023-04-25T02:17:02;5.82;;;1.75;;
71965;SDS011;59836;52.132;5.442;2023-04-25T02:19:30;9.63;;;2.25;;
71965;SDS011;59836;52.132;5.442;2023-04-25T02:21:59;7.23;;;1.97;;
71965;SDS011;59836;52.132;5.442;2023-04-25T02:24:29;7.10;;;1.48;;
71965;SDS011;59836;52.132;5.442;2023-04-25T02:27:20;8.18;;;1.85;;
71965;SDS011;59836;52.132;5.442;2023-04-25T02:30:00;4.80;;;1.80;;
71965;SDS011;59836;52.132;5.442;2023-04-25T02:32:42;8.45;;;2.33;;
71965;SDS011;59836;52.132;5.442;2023-04-25T02:35:37;5.73;;;2.33;;
71965;SDS011;59836;52.132;5.442;2023-04-25T02:38:11;9.77;;;1.95;;
71965;SDS011;59836;52.132;5.442;2023-04-25T02:40:38;6.40;;;1.63;;
71965;SDS011;59836;52.132;5.442;2023-04-25T02:43:05;5.60;;;1.70;;
71965;SDS011;59836;52.132;5.442;2023-04-25T02:45:33;6.95;;;2.10;;
71965;SDS011;59836;52.132;5.442;2023-04-25T02:47:59;10.47;;;2.20;;
71965;SDS011;59836;52.132;5.442;2023-04-25T02:50:27;6.53;;;2.05;;
71965;SDS011;59836;52.132;5.442;2023-04-25T02:52:56;6.25;;;2.30;;
71965;SDS011;59836;52.132;5.442;2023-04-25T02:55:24;9.88;;;2.22;;
71965;SDS011;59836;52.132;5.442;2023-04-25T02:59:02;4.65;;;2.20;;
71965;SDS011;59836;52.132;5.442;2023-04-25T03:01:39;6.43;;;1.37;;
71965;SDS011;59836;52.132;5.442;2023-04-25T03:04:32;12.30;;;2.17;;
71965;SDS011;59836;52.132;5.442;2023-04-25T03:07:34;6.25;;;1.40;;
71965;SDS011;59836;52.132;5.442;2023-04-25T03:10:01;8.68;;;2.00;;
71965;SDS011;59836;52.132;5.442;2023-04-25T03:13:00;4.22;;;1.88;;
71965;SDS011;59836;52.132;5.442;2023-04-25T03:18:32;6.32;;;2.00;;
71965;SDS011;59836;52.132;5.442;2023-04-25T03:21:05;8.05;;;1.85;;
71965;SDS011;59836;52.132;5.442;2023-04-25T03:23:32;5.40;;;2.13;;
71965;SDS011;59836;52.132;5.442;2023-04-25T03:26:00;8.52;;;1.95;;
71965;SDS011;59836;52.132;5.442;2023-04-25T03:28:35;8.83;;;2.20;;
71965;SDS011;59836;52.132;5.442;2023-04-25T03:34:23;12.32;;;2.03;;
71965;SDS011;59836;52.132;5.442;2023-04-25T03:36:56;5.35;;;1.80;;
71965;SDS011;59836;52.132;5.442;2023-04-25T03:39:23;8.77;;;1.98;;
71965;SDS011;59836;52.132;5.442;2023-04-25T03:41:50;6.17;;;1.60;;
71965;SDS011;59836;52.132;5.442;2023-04-25T03:44:22;7.43;;;2.00;;
71965;SDS011;59836;52.132;5.442;2023-04-25T03:47:11;8.43;;;2.42;;
71965;SDS011;59836;52.132;5.442;2023-04-25T03:49:41;10.05;;;2.03;;
71965;SDS011;59836;52.132;5.442;2023-04-25T03:52:15;6.25;;;2.00;;
71965;SDS011;59836;52.132;5.442;2023-04-25T03:55:07;4.57;;;1.93;;
71965;SDS011;59836;52.132;5.442;2023-04-25T03:57:52;4.40;;;1.40;;
71965;SDS011;59836;52.132;5.442;2023-04-25T04:06:05;6.82;;;1.83;;
71965;SDS011;59836;52.132;5.442;2023-04-25T04:08:35;6.87;;;2.00;;
71965;SDS011;59836;52.132;5.442;2023-04-25T04:11:06;8.43;;;1.80;;
71965;SDS011;59836;52.132;5.442;2023-04-25T04:13:37;5.40;;;1.42;;
71965;SDS011;59836;52.132;5.442;2023-04-25T04:16:16;5.78;;;1.90;;
71965;SDS011;59836;52.132;5.442;2023-04-25T04:18:54;4.93;;;1.52;;
71965;SDS011;59836;52.132;5.442;2023-04-25T04:21:20;4.73;;;1.37;;
71965;SDS011;59836;52.132;5.442;2023-04-25T04:23:47;4.38;;;1.52;;
71965;SDS011;59836;52.132;5.442;2023-04-25T04:26:16;7.32;;;1.48;;
71965;SDS011;59836;52.132;5.442;2023-04-25T04:28:50;5.32;;;1.23;;
71965;SDS011;59836;52.132;5.442;2023-04-25T04:31:29;10.10;;;1.40;;
71965;SDS011;59836;52.132;5.442;2023-04-25T04:34:10;2.87;;;1.40;;
71965;SDS011;59836;52.132;5.442;2023-04-25T04:36:45;5.35;;;1.13;;
71965;SDS011;59836;52.132;5.442;2023-04-25T04:39:15;4.43;;;1.15;;
71965;SDS011;59836;52.132;5.442;2023-04-25T04:41:48;4.80;;;1.33;;
71965;SDS011;59836;52.132;5.442;2023-04-25T04:52:23;6.05;;;1.10;;
71965;SDS011;59836;52.132;5.442;2023-04-25T04:55:00;4.05;;;1.08;;
71965;SDS011;59836;52.132;5.442;2023-04-25T04:57:32;3.88;;;1.38;;
71965;SDS011;59836;52.132;5.442;2023-04-25T05:03:00;2.88;;;1.13;;
71965;SDS011;59836;52.132;5.442;2023-04-25T05:05:27;6.07;;;1.10;;
71965;SDS011;59836;52.132;5.442;2023-04-25T05:07:54;3.53;;;1.00;;
71965;SDS011;59836;52.132;5.442;2023-04-25T05:10:21;4.72;;;1.10;;
71965;SDS011;59836;52.132;5.442;2023-04-25T05:12:48;3.77;;;1.23;;
71965;SDS011;59836;52.132;5.442;2023-04-25T05:15:15;4.85;;;1.30;;
71965;SDS011;59836;52.132;5.442;2023-04-25T05:17:44;6.80;;;1.10;;
71965;SDS011;59836;52.132;5.442;2023-04-25T05:20:11;3.80;;;1.67;;
71965;SDS011;59836;52.132;5.442;2023-04-25T05:22:40;5.07;;;1.25;;
71965;SDS011;59836;52.132;5.442;2023-04-25T05:25:14;3.47;;;1.30;;
71965;SDS011;59836;52.132;5.442;2023-04-25T05:27:41;5.07;;;1.60;;
71965;SDS011;59836;52.132;5.442;2023-04-25T05:30:08;6.15;;;1.20;;
71965;SDS011;59836;52.132;5.442;2023-04-25T05:32:35;3.47;;;1.50;;
71965;SDS011;59836;52.132;5.442;2023-04-25T05:40:51;6.50;;;1.60;;
71965;SDS011;59836;52.132;5.442;2023-04-25T05:43:19;4.75;;;1.50;;
71965;SDS011;59836;52.132;5.442;2023-04-25T05:45:45;4.18;;;1.45;;
71965;SDS011;59836;52.132;5.442;2023-04-25T05:48:13;6.18;;;2.03;;
71965;SDS011;59836;52.132;5.442;2023-04-25T05:50:39;7.53;;;1.50;;
71965;SDS011;59836;52.132;5.442;2023-04-25T05:53:06;6.50;;;1.60;;
71965;SDS011;59836;52.132;5.442;2023-04-25T05:58:18;4.75;;;1.60;;
71965;SDS011;59836;52.132;5.442;2023-04-25T06:00:44;6.72;;;1.23;;
71965;SDS011;59836;52.132;5.442;2023-04-25T06:06:17;7.53;;;2.00;;
71965;SDS011;59836;52.132;5.442;2023-04-25T06:18:41;3.97;;;1.90;;
71965;SDS011;59836;52.132;5.442;2023-04-25T06:21:16;6.53;;;1.50;;
71965;SDS011;59836;52.132;5.442;2023-04-25T06:23:43;4.38;;;1.65;;
71965;SDS011;59836;52.132;5.442;2023-04-25T06:29:24;6.78;;;2.17;;
71965;SDS011;59836;52.132;5.442;2023-04-25T06:35:10;6.20;;;1.42;;
71965;SDS011;59836;52.132;5.442;2023-04-25T06:37:45;4.07;;;0.88;;
71965;SDS011;59836;52.132;5.442;2023-04-25T06:40:14;5.47;;;1.30;;
71965;SDS011;59836;52.132;5.442;2023-04-25T06:42:54;7.18;;;1.48;;
71965;SDS011;59836;52.132;5.442;2023-04-25T06:48:22;3.17;;;1.40;;
71965;SDS011;59836;52.132;5.442;2023-04-25T06:50:48;5.10;;;1.35;;
71965;SDS011;59836;52.132;5.442;2023-04-25T06:53:15;3.50;;;1.05;;
71965;SDS011;59836;52.132;5.442;2023-04-25T06:55:48;4.28;;;1.60;;
71965;SDS011;59836;52.132;5.442;2023-04-25T07:01:27;7.75;;;1.25;;
71965;SDS011;59836;52.132;5.442;2023-04-25T07:03:53;2.30;;;1.02;;
71965;SDS011;59836;52.132;5.442;2023-04-25T07:06:20;5.72;;;1.13;;
71965;SDS011;59836;52.132;5.442;2023-04-25T07:08:47;4.78;;;1.15;;
71965;SDS011;59836;52.132;5.442;2023-04-25T07:11:16;4.50;;;1.33;;
71965;SDS011;59836;52.132;5.442;2023-04-25T07:13:46;7.43;;;1.30;;
71965;SDS011;59836;52.132;5.442;2023-04-25T07:16:13;7.53;;;1.33;;
71965;SDS011;59836;52.132;5.442;2023-04-25T07:18:40;4.93;;;1.50;;
71965;SDS011;59836;52.132;5.442;2023-04-25T07:24:22;5.50;;;1.40;;
71965;SDS011;59836;52.132;5.442;2023-04-25T07:26:49;2.55;;;0.98;;
71965;SDS011;59836;52.132;5.442;2023-04-25T07:29:18;4.65;;;1.08;;
71965;SDS011;59836;52.132;5.442;2023-04-25T07:32:01;4.95;;;0.95;;
71965;SDS011;59836;52.132;5.442;2023-04-25T07:34:28;2.65;;;1.08;;
71965;SDS011;59836;52.132;5.442;2023-04-25T07:37:15;2.40;;;0.80;;
71965;SDS011;59836;52.132;5.442;2023-04-25T07:39:41;4.40;;;1.23;;
71965;SDS011;59836;52.132;5.442;2023-04-25T07:42:08;6.55;;;1.00;;
71965;SDS011;59836;52.132;5.442;2023-04-25T07:47:23;4.93;;;1.00;;
71965;SDS011;59836;52.132;5.442;2023-04-25T07:49:50;3.67;;;1.10;;
71965;SDS011;59836;52.132;5.442;2023-04-25T07:52:17;6.20;;;1.08;;
71965;SDS011;59836;52.132;5.442;2023-04-25T07:54:43;4.63;;;0.90;;
71965;SDS011;59836;52.132;5.442;2023-04-25T07:57:33;5.43;;;0.90;;
71965;SDS011;59836;52.132;5.442;2023-04-25T08:00:00;7.78;;;1.13;;
71965;SDS011;59836;52.132;5.442;2023-04-25T08:02:27;5.83;;;0.63;;
71965;SDS011;59836;52.132;5.442;2023-04-25T08:04:54;4.80;;;0.82;;
71965;SDS011;59836;52.132;5.442;2023-04-25T08:07:21;3.35;;;1.05;;
71965;SDS011;59836;52.132;5.442;2023-04-25T08:09:48;4.03;;;0.70;;
71965;SDS011;59836;52.132;5.442;2023-04-25T08:12:15;7.47;;;1.00;;
71965;SDS011;59836;52.132;5.442;2023-04-25T08:14:48;5.23;;;0.87;;
71965;SDS011;59836;52.132;5.442;2023-04-25T08:17:14;7.53;;;1.25;;
71965;SDS011;59836;52.132;5.442;2023-04-25T08:19:41;5.60;;;1.10;;
71965;SDS011;59836;52.132;5.442;2023-04-25T08:22:08;6.57;;;1.35;;
71965;SDS011;59836;52.132;5.442;2023-04-25T08:24:34;10.77;;;0.90;;
71965;SDS011;59836;52.132;5.442;2023-04-25T08:27:04;5.13;;;0.77;;
71965;SDS011;59836;52.132;5.442;2023-04-25T08:29:33;4.93;;;1.50;;
71965;SDS011;59836;52.132;5.442;2023-04-25T08:32:04;8.57;;;0.88;;
71965;SDS011;59836;52.132;5.442;2023-04-25T08:34:31;5.45;;;1.08;;
71965;SDS011;59836;52.132;5.442;2023-04-25T08:37:48;4.45;;;0.95;;
71965;SDS011;59836;52.132;5.442;2023-04-25T08:40:32;1.70;;;0.57;;
71965;SDS011;59836;52.132;5.442;2023-04-25T08:43:03;3.40;;;0.90;;
71965;SDS011;59836;52.132;5.442;2023-04-25T08:45:35;4.43;;;0.80;;
71965;SDS011;59836;52.132;5.442;2023-04-25T08:48:04;1.05;;;0.65;;
71965;SDS011;59836;52.132;5.442;2023-04-25T08:50:33;2.83;;;0.60;;
71965;SDS011;59836;52.132;5.442;2023-04-25T08:53:00;5.60;;;0.57;;
71965;SDS011;59836;52.132;5.442;2023-04-25T08:55:30;5.30;;;0.70;;
71965;SDS011;59836;52.132;5.442;2023-04-25T08:57:58;3.53;;;0.90;;
71965;SDS011;59836;52.132;5.442;2023-04-25T09:00:29;2.42;;;0.93;;
71965;SDS011;59836;52.132;5.442;2023-04-25T09:02:56;5.68;;;0.90;;
71965;SDS011;59836;52.132;5.442;2023-04-25T09:05:25;3.97;;;1.63;;
71965;SDS011;59836;52.132;5.442;2023-04-25T09:07:52;4.00;;;0.93;;
71965;SDS011;59836;52.132;5.442;2023-04-25T09:10:19;6.63;;;1.00;;
71965;SDS011;59836;52.132;5.442;2023-04-25T09:13:01;4.35;;;0.95;;
71965;SDS011;59836;52.132;5.442;2023-04-25T09:15:29;5.53;;;1.73;;
71965;SDS011;59836;52.132;5.442;2023-04-25T09:17:56;5.03;;;1.03;;
71965;SDS011;59836;52.132;5.442;2023-04-25T09:20:36;4.22;;;0.85;;
71965;SDS011;59836;52.132;5.442;2023-04-25T09:23:12;2.58;;;0.77;;
71965;SDS011;59836;52.132;5.442;2023-04-25T09:25:40;4.13;;;0.77;;
71965;SDS011;59836;52.132;5.442;2023-04-25T09:28:09;2.47;;;1.00;;
71965;SDS011;59836;52.132;5.442;2023-04-25T09:30:36;2.43;;;0.90;;
71965;SDS011;59836;52.132;5.442;2023-04-25T09:33:07;3.67;;;0.80;;
71965;SDS011;59836;52.132;5.442;2023-04-25T09:35:36;5.20;;;0.98;;
71965;SDS011;59836;52.132;5.442;2023-04-25T09:38:11;3.15;;;0.88;;
71965;SDS011;59836;52.132;5.442;2023-04-25T09:40:44;1.95;;;0.65;;
71965;SDS011;59836;52.132;5.442;2023-04-25T09:43:22;3.87;;;1.07;;
71965;SDS011;59836;52.132;5.442;2023-04-25T09:46:04;3.40;;;1.38;;
71965;SDS011;59836;52.132;5.442;2023-04-25T09:48:37;2.40;;;0.70;;
71965;SDS011;59836;52.132;5.442;2023-04-25T09:51:10;2.83;;;0.80;;
71965;SDS011;59836;52.132;5.442;2023-04-25T09:53:44;3.78;;;1.08;;
71965;SDS011;59836;52.132;5.442;2023-04-25T09:56:20;3.30;;;1.00;;
71965;SDS011;59836;52.132;5.442;2023-04-25T09:58:48;1.27;;;0.70;;
71965;SDS011;59836;52.132;5.442;2023-04-25T10:01:20;2.72;;;0.88;;
71965;SDS011;59836;52.132;5.442;2023-04-25T10:03:50;2.22;;;0.88;;
71965;SDS011;59836;52.132;5.442;2023-04-25T10:06:21;5.40;;;1.08;;
71965;SDS011;59836;52.132;5.442;2023-04-25T10:08:50;1.90;;;0.40;;
71965;SDS011;59836;52.132;5.442;2023-04-25T10:11:18;2.05;;;0.80;;
71965;SDS011;59836;52.132;5.442;2023-04-25T10:13:45;3.10;;;0.60;;
71965;SDS011;59836;52.132;5.442;2023-04-25T10:16:15;1.45;;;0.35;;
71965;SDS011;59836;52.132;5.442;2023-04-25T10:18:55;4.57;;;0.65;;
71965;SDS011;59836;52.132;5.442;2023-04-25T10:21:23;3.60;;;0.50;;
71965;SDS011;59836;52.132;5.442;2023-04-25T10:23:57;3.30;;;0.73;;
71965;SDS011;59836;52.132;5.442;2023-04-25T10:26:33;1.77;;;0.73;;
71965;SDS011;59836;52.132;5.442;2023-04-25T10:29:01;2.72;;;0.90;;
71965;SDS011;59836;52.132;5.442;2023-04-25T10:31:29;5.22;;;1.35;;
71965;SDS011;59836;52.132;5.442;2023-04-25T10:34:01;2.63;;;0.67;;
71965;SDS011;59836;52.132;5.442;2023-04-25T10:36:37;5.47;;;0.68;;
71965;SDS011;59836;52.132;5.442;2023-04-25T10:39:04;2.53;;;0.70;;
71965;SDS011;59836;52.132;5.442;2023-04-25T10:41:48;3.33;;;0.90;;
71965;SDS011;59836;52.132;5.442;2023-04-25T10:44:31;2.10;;;0.68;;
71965;SDS011;59836;52.132;5.442;2023-04-25T10:47:00;3.77;;;0.60;;
71965;SDS011;59836;52.132;5.442;2023-04-25T10:54:55;2.45;;;1.08;;
71965;SDS011;59836;52.132;5.442;2023-04-25T10:59:58;4.57;;;1.20;;
71965;SDS011;59836;52.132;5.442;2023-04-25T11:02:36;2.00;;;0.90;;
71965;SDS011;59836;52.132;5.442;2023-04-25T11:05:04;2.65;;;0.90;;
71965;SDS011;59836;52.132;5.442;2023-04-25T11:07:37;3.75;;;0.77;;
71965;SDS011;59836;52.132;5.442;2023-04-25T11:10:13;4.65;;;1.23;;
71965;SDS011;59836;52.132;5.442;2023-04-25T11:12:44;3.60;;;0.97;;
71965;SDS011;59836;52.132;5.442;2023-04-25T11:15:12;5.55;;;1.13;;
71965;SDS011;59836;52.132;5.442;2023-04-25T11:17:39;4.13;;;0.85;;
71965;SDS011;59836;52.132;5.442;2023-04-25T11:20:07;3.08;;;0.90;;
71965;SDS011;59836;52.132;5.442;2023-04-25T11:22:45;2.67;;;0.60;;
71965;SDS011;59836;52.132;5.442;2023-04-25T11:25:15;3.13;;;1.07;;
71965;SDS011;59836;52.132;5.442;2023-04-25T11:30:19;3.08;;;0.57;;
71965;SDS011;59836;52.132;5.442;2023-04-25T11:32:51;2.35;;;0.80;;
71965;SDS011;59836;52.132;5.442;2023-04-25T11:35:21;2.92;;;0.90;;
71965;SDS011;59836;52.132;5.442;2023-04-25T11:37:49;3.90;;;1.00;;
71965;SDS011;59836;52.132;5.442;2023-04-25T11:40:16;3.55;;;1.08;;
71965;SDS011;59836;52.132;5.442;2023-04-25T11:42:44;3.53;;;0.73;;
71965;SDS011;59836;52.132;5.442;2023-04-25T11:45:12;5.78;;;1.20;;
71965;SDS011;59836;52.132;5.442;2023-04-25T11:47:39;3.83;;;0.98;;
71965;SDS011;59836;52.132;5.442;2023-04-25T11:50:07;3.37;;;1.00;;
71965;SDS011;59836;52.132;5.442;2023-04-25T11:52:44;2.50;;;0.80;;
71965;SDS011;59836;52.132;5.442;2023-04-25T11:55:15;2.95;;;0.80;;
71965;SDS011;59836;52.132;5.442;2023-04-25T11:57:47;5.20;;;0.98;;
71965;SDS011;59836;52.132;5.442;2023-04-25T12:00:17;4.00;;;0.90;;
71965;SDS011;59836;52.132;5.442;2023-04-25T12:02:46;3.80;;;0.73;;
71965;SDS011;59836;52.132;5.442;2023-04-25T12:05:18;3.35;;;0.60;;
71965;SDS011;59836;52.132;5.442;2023-04-25T12:07:58;1.70;;;0.68;;
71965;SDS011;59836;52.132;5.442;2023-04-25T12:10:37;3.40;;;1.00;;
71965;SDS011;59836;52.132;5.442;2023-04-25T12:13:21;3.40;;;0.73;;
71965;SDS011;59836;52.132;5.442;2023-04-25T12:18:36;3.78;;;0.75;;
71965;SDS011;59836;52.132;5.442;2023-04-25T12:21:03;2.83;;;1.05;;
71965;SDS011;59836;52.132;5.442;2023-04-25T12:23:30;1.55;;;0.77;;
71965;SDS011;59836;52.132;5.442;2023-04-25T12:25:57;3.90;;;1.00;;
71965;SDS011;59836;52.132;5.442;2023-04-25T12:28:24;3.00;;;0.90;;
71965;SDS011;59836;52.132;5.442;2023-04-25T12:30:54;5.00;;;0.70;;
71965;SDS011;59836;52.132;5.442;2023-04-25T12:33:22;5.78;;;1.02;;
71965;SDS011;59836;52.132;5.442;2023-04-25T12:35:49;5.78;;;1.20;;
71965;SDS011;59836;52.132;5.442;2023-04-25T12:38:25;4.25;;;1.20;;
71965;SDS011;59836;52.132;5.442;2023-04-25T12:40:53;2.60;;;0.80;;
71965;SDS011;59836;52.132;5.442;2023-04-25T12:43:20;3.15;;;0.80;;
71965;SDS011;59836;52.132;5.442;2023-04-25T12:45:48;1.75;;;0.90;;
71965;SDS011;59836;52.132;5.442;2023-04-25T12:48:17;4.70;;;1.00;;
71965;SDS011;59836;52.132;5.442;2023-04-25T12:50:43;3.92;;;0.90;;
71965;SDS011;59836;52.132;5.442;2023-04-25T12:53:11;3.10;;;1.00;;
71965;SDS011;59836;52.132;5.442;2023-04-25T12:55:37;2.92;;;1.05;;
71965;SDS011;59836;52.132;5.442;2023-04-25T12:58:04;2.50;;;0.80;;
71965;SDS011;59836;52.132;5.442;2023-04-25T13:00:30;1.02;;;0.63;;
71965;SDS011;59836;52.132;5.442;2023-04-25T13:02:57;3.15;;;1.15;;
71965;SDS011;59836;52.132;5.442;2023-04-25T13:05:24;2.33;;;1.00;;
71965;SDS011;59836;52.132;5.442;2023-04-25T13:07:51;2.80;;;1.10;;
71965;SDS011;59836;52.132;5.442;2023-04-25T13:10:18;3.72;;;0.90;;
71965;SDS011;59836;52.132;5.442;2023-04-25T13:12:44;2.45;;;0.82;;
71965;SDS011;59836;52.132;5.442;2023-04-25T13:15:12;1.45;;;0.70;;
71965;SDS011;59836;52.132;5.442;2023-04-25T13:17:38;2.13;;;0.90;;
71965;SDS011;59836;52.132;5.442;2023-04-25T13:20:05;3.15;;;0.50;;
71965;SDS011;59836;52.132;5.442;2023-04-25T13:22:38;2.53;;;0.73;;
71965;SDS011;59836;52.132;5.442;2023-04-25T13:25:06;3.58;;;1.40;;
71965;SDS011;59836;52.132;5.442;2023-04-25T13:27:34;2.20;;;0.70;;
71965;SDS011;59836;52.132;5.442;2023-04-25T13:30:03;3.07;;;0.60;;
71965;SDS011;59836;52.132;5.442;2023-04-25T13:32:34;3.95;;;0.98;;
71965;SDS011;59836;52.132;5.442;2023-04-25T13:35:05;3.95;;;0.93;;
71965;SDS011;59836;52.132;5.442;2023-04-25T13:37:36;4.53;;;0.77;;
71965;SDS011;59836;52.132;5.442;2023-04-25T13:40:04;2.92;;;0.85;;
71965;SDS011;59836;52.132;5.442;2023-04-25T13:42:35;4.37;;;1.10;;
71965;SDS011;59836;52.132;5.442;2023-04-25T13:45:03;2.08;;;0.90;;
71965;SDS011;59836;52.132;5.442;2023-04-25T13:47:29;3.72;;;1.17;;
71965;SDS011;59836;52.132;5.442;2023-04-25T13:49:56;2.15;;;0.52;;
71965;SDS011;59836;52.132;5.442;2023-04-25T13:52:23;2.42;;;0.73;;
71965;SDS011;59836;52.132;5.442;2023-04-25T13:54:53;3.43;;;0.87;;
71965;SDS011;59836;52.132;5.442;2023-04-25T13:57:20;2.38;;;0.88;;
71965;SDS011;59836;52.132;5.442;2023-04-25T13:59:46;3.70;;;1.00;;
71965;SDS011;59836;52.132;5.442;2023-04-25T14:02:13;3.38;;;0.98;;
71965;SDS011;59836;52.132;5.442;2023-04-25T14:04:40;2.95;;;0.80;;
71965;SDS011;59836;52.132;5.442;2023-04-25T14:07:07;5.83;;;1.00;;
71965;SDS011;59836;52.132;5.442;2023-04-25T14:09:33;3.03;;;1.42;;
71965;SDS011;59836;52.132;5.442;2023-04-25T14:12:00;3.45;;;0.75;;
71965;SDS011;59836;52.132;5.442;2023-04-25T14:14:28;4.07;;;1.05;;
71965;SDS011;59836;52.132;5.442;2023-04-25T14:16:54;1.98;;;0.82;;
71965;SDS011;59836;52.132;5.442;2023-04-25T14:19:21;5.93;;;1.00;;
71965;SDS011;59836;52.132;5.442;2023-04-25T14:21:47;2.97;;;1.05;;
71965;SDS011;59836;52.132;5.442;2023-04-25T14:24:14;2.55;;;0.80;;
71965;SDS011;59836;52.132;5.442;2023-04-25T14:26:41;3.85;;;1.10;;
71965;SDS011;59836;52.132;5.442;2023-04-25T14:29:08;4.25;;;0.93;;
71965;SDS011;59836;52.132;5.442;2023-04-25T14:31:39;4.60;;;0.90;;
71965;SDS011;59836;52.132;5.442;2023-04-25T14:34:07;4.30;;;0.82;;
71965;SDS011;59836;52.132;5.442;2023-04-25T14:36:35;2.85;;;0.70;;
71965;SDS011;59836;52.132;5.442;2023-04-25T14:39:02;2.88;;;0.70;;
71965;SDS011;59836;52.132;5.442;2023-04-25T14:41:31;3.47;;;0.80;;
71965;SDS011;59836;52.132;5.442;2023-04-25T14:43:57;4.53;;;0.80;;
71965;SDS011;59836;52.132;5.442;2023-04-25T14:46:24;2.53;;;0.95;;
71965;SDS011;59836;52.132;5.442;2023-04-25T14:48:50;3.28;;;0.77;;
71965;SDS011;59836;52.132;5.442;2023-04-25T14:51:17;3.63;;;1.05;;
71965;SDS011;59836;52.132;5.442;2023-04-25T14:53:44;2.88;;;0.95;;
71965;SDS011;59836;52.132;5.442;2023-04-25T14:56:10;1.50;;;1.10;;
71965;SDS011;59836;52.132;5.442;2023-04-25T14:58:37;3.75;;;0.63;;
71965;SDS011;59836;52.132;5.442;2023-04-25T15:01:04;4.28;;;0.98;;
71965;SDS011;59836;52.132;5.442;2023-04-25T15:03:31;2.72;;;0.70;;
71965;SDS011;59836;52.132;5.442;2023-04-25T15:05:58;2.22;;;0.55;;
71965;SDS011;59836;52.132;5.442;2023-04-25T15:08:25;5.50;;;0.90;;
71965;SDS011;59836;52.132;5.442;2023-04-25T15:10:52;2.85;;;0.95;;
71965;SDS011;59836;52.132;5.442;2023-04-25T15:13:18;1.42;;;0.50;;
71965;SDS011;59836;52.132;5.442;2023-04-25T15:15:45;1.45;;;0.80;;
71965;SDS011;59836;52.132;5.442;2023-04-25T15:18:20;3.13;;;0.70;;
71965;SDS011;59836;52.132;5.442;2023-04-25T15:20:49;3.40;;;0.60;;
71965;SDS011;59836;52.132;5.442;2023-04-25T15:23:17;2.15;;;0.50;;
71965;SDS011;59836;52.132;5.442;2023-04-25T15:25:46;1.10;;;0.80;;
71965;SDS011;59836;52.132;5.442;2023-04-25T15:28:16;2.53;;;1.02;;
71965;SDS011;59836;52.132;5.442;2023-04-25T15:30:47;4.35;;;1.05;;
71965;SDS011;59836;52.132;5.442;2023-04-25T15:33:14;3.40;;;1.10;;
71965;SDS011;59836;52.132;5.442;2023-04-25T15:35:41;2.80;;;0.80;;
71965;SDS011;59836;52.132;5.442;2023-04-25T15:38:21;3.72;;;1.10;;
71965;SDS011;59836;52.132;5.442;2023-04-25T15:40:52;5.30;;;1.08;;
71965;SDS011;59836;52.132;5.442;2023-04-25T15:43:18;3.92;;;1.48;;
71965;SDS011;59836;52.132;5.442;2023-04-25T15:45:45;2.87;;;0.97;;
71965;SDS011;59836;52.132;5.442;2023-04-25T15:48:11;5.65;;;1.15;;
71965;SDS011;59836;52.132;5.442;2023-04-25T15:50:38;3.42;;;0.60;;
71965;SDS011;59836;52.132;5.442;2023-04-25T15:53:04;3.17;;;1.20;;
71965;SDS011;59836;52.132;5.442;2023-04-25T15:55:33;4.68;;;0.80;;
71965;SDS011;59836;52.132;5.442;2023-04-25T15:57:59;4.67;;;0.50;;
71965;SDS011;59836;52.132;5.442;2023-04-25T16:00:26;3.75;;;1.20;;
71965;SDS011;59836;52.132;5.442;2023-04-25T16:03:03;3.63;;;1.05;;
71965;SDS011;59836;52.132;5.442;2023-04-25T16:05:30;6.07;;;0.90;;
71965;SDS011;59836;52.132;5.442;2023-04-25T16:07:57;5.07;;;1.27;;
71965;SDS011;59836;52.132;5.442;2023-04-25T16:10:24;4.77;;;1.20;;
71965;SDS011;59836;52.132;5.442;2023-04-25T16:12:50;2.28;;;1.02;;
71965;SDS011;59836;52.132;5.442;2023-04-25T16:15:17;4.40;;;1.13;;
71965;SDS011;59836;52.132;5.442;2023-04-25T16:17:43;5.05;;;0.68;;
71965;SDS011;59836;52.132;5.442;2023-04-25T16:20:10;4.13;;;0.85;;
71965;SDS011;59836;52.132;5.442;2023-04-25T16:22:38;1.73;;;0.80;;
71965;SDS011;59836;52.132;5.442;2023-04-25T16:25:06;4.25;;;0.95;;
71965;SDS011;59836;52.132;5.442;2023-04-25T16:27:34;3.60;;;0.68;;
71965;SDS011;59836;52.132;5.442;2023-04-25T16:30:01;4.32;;;0.98;;
71965;SDS011;59836;52.132;5.442;2023-04-25T16:32:28;3.42;;;0.77;;
71965;SDS011;59836;52.132;5.442;2023-04-25T16:34:54;4.60;;;0.67;;
71965;SDS011;59836;52.132;5.442;2023-04-25T16:37:23;3.38;;;1.00;;
71965;SDS011;59836;52.132;5.442;2023-04-25T16:39:50;3.30;;;0.60;;
71965;SDS011;59836;52.132;5.442;2023-04-25T16:42:17;4.40;;;0.93;;
71965;SDS011;59836;52.132;5.442;2023-04-25T16:44:45;3.35;;;1.10;;
71965;SDS011;59836;52.132;5.442;2023-04-25T16:47:22;3.13;;;1.03;;
71965;SDS011;59836;52.132;5.442;2023-04-25T16:49:50;2.75;;;0.90;;
71965;SDS011;59836;52.132;5.442;2023-04-25T16:52:26;4.25;;;0.90;;
71965;SDS011;59836;52.132;5.442;2023-04-25T16:54:52;1.95;;;1.02;;
71965;SDS011;59836;52.132;5.442;2023-04-25T16:57:18;2.78;;;0.77;;
71965;SDS011;59836;52.132;5.442;2023-04-25T16:59:46;3.40;;;1.13;;
71965;SDS011;59836;52.132;5.442;2023-04-25T17:02:13;4.35;;;0.95;;
71965;SDS011;59836;52.132;5.442;2023-04-25T17:04:40;4.35;;;0.70;;
71965;SDS011;59836;52.132;5.442;2023-04-25T17:07:07;4.53;;;1.40;;
71965;SDS011;59836;52.132;5.442;2023-04-25T17:09:37;3.17;;;0.88;;
71965;SDS011;59836;52.132;5.442;2023-04-25T17:12:04;3.27;;;1.07;;
71965;SDS011;59836;52.132;5.442;2023-04-25T17:14:30;2.78;;;0.90;;
71965;SDS011;59836;52.132;5.442;2023-04-25T17:17:11;2.08;;;1.10;;
71965;SDS011;59836;52.132;5.442;2023-04-25T17:19:37;2.55;;;0.80;;